Time;durP1;ratioP1;P1;durP2;ratioP2;P2;SDS_P1;SDS_P2;PMS_P1;PMS_P2;Temp;Humidity;BMP_temperature;BMP_pressure;BME280_temperature;BME280_humidity;BME280_pressure;Samples;Min_cycle;Max_cycle;Signal;HPM_P1;HPM_P2
2022/03/26 00:02:09;;;;;;;;;;;;;;;;;;4980534;28;1521;-65
2022/03/26 00:04:34;;;;;;;;;;;;;;;;;;4982526;28;1192;-66
2022/03/26 00:06:59;;;;;;;;;;;;;;;;;;4981597;28;1312;-66
2022/03/26 00:09:24;;;;;;;;;;;;;;;;;;4982981;28;1891;-66
2022/03/26 00:11:49;;;;;;;;;;;;;;;;;;4982546;28;1220;-66
2022/03/26 00:14:15;;;;;;;;;;;;;;;;;;4980987;28;1647;-67
2022/03/26 00:16:40;;;;;;;;;;;;;;;;;;4982335;28;1346;-66
2022/03/26 00:19:05;;;;;;;;;;;;;;;;;;4982798;28;1296;-66
2022/03/26 00:21:30;;;;;;;;;;;;;;;;;;4982076;28;1456;-66
2022/03/26 00:23:55;;;;;;;;;;;;;;;;;;4983061;28;1253;-66
2022/03/26 00:26:21;;;;;;;;;;;;;;;;;;4982268;28;1369;-66
2022/03/26 00:28:46;;;;;;;;;;;;;;;;;;4980086;28;1891;-66
2022/03/26 00:31:12;;;;;;;;;;;;;;;;;;4982481;28;1580;-66
2022/03/26 00:33:38;;;;;;;;;;;;;;;;;;4982062;28;1664;-67
2022/03/26 00:36:03;;;;;;;;;;;;;;;;;;4982058;28;1252;-66
2022/03/26 00:38:28;;;;;;;;;;;;;;;;;;4982834;28;1248;-66
2022/03/26 00:40:53;;;;;;;;;;;;;;;;;;4983179;28;1311;-66
2022/03/26 00:43:19;;;;;;;;;;;;;;;;;;4982229;28;1595;-66
2022/03/26 00:45:44;;;;;;;;;;;;;;;;;;4982056;28;1351;-66
2022/03/26 00:48:09;;;;;;;;;;;;;;;;;;4981953;28;1971;-66
2022/03/26 00:50:34;;;;;;;;;;;;;;;;;;4982606;28;1300;-66
2022/03/26 00:52:59;;;;;;;;;;;;;;;;;;4982460;28;1300;-67
2022/03/26 00:55:25;;;;;;;;;;;;;;;;;;4981942;28;1244;-66
2022/03/26 00:57:50;;;;;;;;;;;;;;;;;;4980558;28;1655;-66
2022/03/26 01:00:15;;;;;;;;;;;;;;;;;;4982094;28;1351;-66
2022/03/26 01:02:41;;;;;;;;;;;;;;;;;;4981608;28;1259;-66
2022/03/26 01:05:06;;;;;;;;;;;;;;;;;;4981805;28;1426;-66
2022/03/26 01:07:31;;;;;;;;;;;;;;;;;;4982195;28;1370;-66
2022/03/26 01:09:57;;;;;;;;;;;;;;;;;;4981985;28;1898;-66
2022/03/26 01:12:23;;;;;;;;;;;;;;;;;;4980814;28;1608;-66
2022/03/26 01:14:49;;;;;;;;;;;;;;;;;;4981954;28;1219;-66
2022/03/26 01:17:14;;;;;;;;;;;;;;;;;;4981383;28;1312;-66
2022/03/26 01:19:39;;;;;;;;;;;;;;;;;;4979229;28;1537;-66
2022/03/26 01:22:04;;;;;;;;;;;;;;;;;;4980487;28;1627;-66
2022/03/26 01:24:30;;;;;;;;;;;;;;;;;;4981730;28;1303;-66
2022/03/26 01:26:55;;;;;;;;;;;;;;;;;;4979244;28;1639;-67
2022/03/26 01:29:20;;;;;;;;;;;;;;;;;;4980092;28;1959;-66
2022/03/26 01:31:45;;;;;;;;;;;;;;;;;;4981690;28;1396;-66
2022/03/26 01:34:10;;;;;;;;;;;;;;;;;;4981937;28;1245;-66
2022/03/26 01:36:36;;;;;;;;;;;;;;;;;;4981116;28;1324;-66
2022/03/26 01:39:01;;;;;;;;;;;;;;;;;;4981715;28;1292;-66
2022/03/26 01:41:26;;;;;;;;;;;;;;;;;;4980180;28;1663;-66
2022/03/26 01:43:52;;;;;;;;;;;;;;;;;;4981438;28;1236;-66
2022/03/26 01:46:19;;;;;;;;;;;;;;;;;;4981436;28;1271;-66
2022/03/26 01:48:44;;;;;;;;;;;;;;;;;;4980367;28;2045;-66
2022/03/26 01:51:15;;;;;;;;;;;;;;;;;;4981615;28;1309;-66
2022/03/26 01:53:42;;;;;;;;;;;;;;;;;;4980308;28;1212;-66
2022/03/26 01:56:07;;;;;;;;;;;;;;;;;;4980334;28;1692;-66
2022/03/26 01:58:33;;;;;;;;;;;;;;;;;;4981535;28;1276;-66
2022/03/26 02:00:58;;;;;;;;;;;;;;;;;;4981608;28;1233;-67
2022/03/26 02:03:23;;;;;;;;;;;;;;;;;;4980559;28;1623;-66
2022/03/26 02:05:48;;;;;;;;;;;;;;;;;;4980728;28;1297;-67
2022/03/26 02:08:13;;;;;;;;;;;;;;;;;;4981417;28;1894;-66
2022/03/26 02:10:39;;;;;;;;;;;;;;;;;;4981246;28;1302;-66
2022/03/26 02:13:05;;;;;;;;;;;;;;;;;;4980875;28;1253;-66
2022/03/26 02:15:30;;;;;;;;;;;;;;;;;;4980760;28;1361;-66
2022/03/26 02:17:56;;;;;;;;;;;;;;;;;;4980502;28;1624;-66
2022/03/26 02:20:22;;;;;;;;;;;;;;;;;;4980437;28;1238;-67
2022/03/26 02:22:48;;;;;;;;;;;;;;;;;;4980644;28;1505;-67
2022/03/26 02:25:13;;;;;;;;;;;;;;;;;;4980839;28;1604;-64
2022/03/26 02:27:38;;;;;;;;;;;;;;;;;;4980896;28;1358;-66
2022/03/26 02:30:04;;;;;;;;;;;;;;;;;;4980865;28;1890;-67
2022/03/26 02:32:30;;;;;;;;;;;;;;;;;;4980957;28;1215;-67
2022/03/26 02:34:56;;;;;;;;;;;;;;;;;;4980655;28;1249;-66
2022/03/26 02:37:21;;;;;;;;;;;;;;;;;;4981875;28;1341;-67
2022/03/26 02:39:46;;;;;;;;;;;;;;;;;;4983130;28;1648;-66
2022/03/26 02:42:12;;;;;;;;;;;;;;;;;;4983060;28;1655;-66
2022/03/26 02:44:38;;;;;;;;;;;;;;;;;;4984260;28;1188;-66
2022/03/26 02:47:03;;;;;;;;;;;;;;;;;;4984167;28;1354;-67
2022/03/26 02:49:29;;;;;;;;;;;;;;;;;;4984437;28;1906;-66
2022/03/26 02:51:54;;;;;;;;;;;;;;;;;;4984177;28;1253;-66
2022/03/26 02:54:19;;;;;;;;;;;;;;;;;;4983029;28;1533;-66
2022/03/26 02:56:45;;;;;;;;;;;;;;;;;;4983508;28;1268;-66
2022/03/26 02:59:11;;;;;;;;;;;;;;;;;;4984062;28;1241;-66
2022/03/26 03:01:36;;;;;;;;;;;;;;;;;;4984053;28;1363;-66
2022/03/26 03:04:01;;;;;;;;;;;;;;;;;;4982770;28;1573;-66
2022/03/26 03:06:26;;;;;;;;;;;;;;;;;;4983344;28;1253;-65
2022/03/26 03:08:53;;;;;;;;;;;;;;;;;;4982960;28;1867;-66
2022/03/26 03:11:18;;;;;;;;;;;;;;;;;;4983415;28;1171;-66
2022/03/26 03:13:43;;;;;;;;;;;;;;;;;;4983843;28;1308;-66
2022/03/26 03:16:08;;;;;;;;;;;;;;;;;;4982899;28;1472;-66
2022/03/26 03:18:33;;;;;;;;;;;;;;;;;;4981457;28;1675;-66
2022/03/26 03:20:59;;;;;;;;;;;;;;;;;;4983561;28;1272;-66
2022/03/26 03:23:24;;;;;;;;;;;;;;;;;;4983575;28;1348;-66
2022/03/26 03:25:49;;;;;;;;;;;;;;;;;;4983272;28;1369;-65
2022/03/26 03:28:14;;;;;;;;;;;;;;;;;;4983472;28;1969;-66
2022/03/26 03:30:41;;;;;;;;;;;;;;;;;;4983445;28;1339;-66
2022/03/26 03:33:06;;;;;;;;;;;;;;;;;;4982699;28;1623;-66
2022/03/26 03:35:31;;;;;;;;;;;;;;;;;;4983181;28;1256;-66
2022/03/26 03:37:56;;;;;;;;;;;;;;;;;;4983494;28;1194;-66
2022/03/26 03:40:21;;;;;;;;;;;;;;;;;;4983385;28;1221;-66
2022/03/26 03:42:47;;;;;;;;;;;;;;;;;;4983009;28;1568;-65
2022/03/26 03:45:12;;;;;;;;;;;;;;;;;;4983096;28;1331;-66
2022/03/26 03:47:38;;;;;;;;;;;;;;;;;;4982994;28;1257;-67
2022/03/26 03:50:04;;;;;;;;;;;;;;;;;;4983304;28;1906;-67
2022/03/26 03:52:29;;;;;;;;;;;;;;;;;;4983273;28;1245;-67
2022/03/26 03:54:54;;;;;;;;;;;;;;;;;;4983123;28;1228;-66
2022/03/26 03:57:19;;;;;;;;;;;;;;;;;;4983008;28;1275;-67
2022/03/26 03:59:44;;;;;;;;;;;;;;;;;;4982491;28;1734;-66
2022/03/26 04:02:10;;;;;;;;;;;;;;;;;;4982897;28;1549;-66
2022/03/26 04:04:39;;;;;;;;;;;;;;;;;;4982814;28;1315;-66
2022/03/26 04:07:04;;;;;;;;;;;;;;;;;;4982550;28;1354;-66
2022/03/26 04:09:30;;;;;;;;;;;;;;;;;;4982683;28;1967;-66
2022/03/26 04:11:55;;;;;;;;;;;;;;;;;;4981314;28;1572;-66
2022/03/26 04:14:20;;;;;;;;;;;;;;;;;;4982765;28;1240;-66
2022/03/26 04:16:45;;;;;;;;;;;;;;;;;;4981946;28;1307;-65
2022/03/26 04:19:12;;;;;;;;;;;;;;;;;;4982972;28;1300;-65
2022/03/26 04:21:37;;;;;;;;;;;;;;;;;;4983090;28;1097;-66
2022/03/26 04:24:03;;;;;;;;;;;;;;;;;;4982388;28;1235;-66
2022/03/26 04:26:28;;;;;;;;;;;;;;;;;;4981622;28;1667;-65
2022/03/26 04:28:53;;;;;;;;;;;;;;;;;;4981492;28;1948;-66
2022/03/26 04:31:18;;;;;;;;;;;;;;;;;;4982544;28;1189;-66
2022/03/26 04:33:44;;;;;;;;;;;;;;;;;;4981992;28;1521;-65
2022/03/26 04:36:09;;;;;;;;;;;;;;;;;;4982152;28;1303;-66
2022/03/26 04:38:34;;;;;;;;;;;;;;;;;;4982516;28;1287;-66
2022/03/26 04:40:59;;;;;;;;;;;;;;;;;;4982574;28;1261;-66
2022/03/26 04:43:24;;;;;;;;;;;;;;;;;;4982474;28;1252;-66
2022/03/26 04:45:49;;;;;;;;;;;;;;;;;;4982103;28;1248;-66
2022/03/26 04:48:15;;;;;;;;;;;;;;;;;;4981496;28;1965;-66
2022/03/26 04:50:40;;;;;;;;;;;;;;;;;;4982021;28;1244;-66
2022/03/26 04:53:05;;;;;;;;;;;;;;;;;;4980963;28;1600;-66
2022/03/26 04:55:30;;;;;;;;;;;;;;;;;;4981928;28;1347;-66
2022/03/26 04:57:55;;;;;;;;;;;;;;;;;;4981745;28;1312;-66
2022/03/26 05:00:22;;;;;;;;;;;;;;;;;;4981401;28;1441;-65
2022/03/26 05:02:47;;;;;;;;;;;;;;;;;;4981148;28;1548;-66
2022/03/26 05:05:13;;;;;;;;;;;;;;;;;;4981856;28;1315;-66
2022/03/26 05:07:47;;;;;;;;;;;;;;;;;;4982293;28;1248;-66
2022/03/26 05:10:12;;;;;;;;;;;;;;;;;;4981725;28;1898;-66
2022/03/26 05:12:38;;;;;;;;;;;;;;;;;;4979277;28;1584;-66
2022/03/26 05:15:03;;;;;;;;;;;;;;;;;;4981534;28;1280;-66
2022/03/26 05:17:28;;;;;;;;;;;;;;;;;;4980795;28;1596;-65
2022/03/26 05:19:53;;;;;;;;;;;;;;;;;;4981926;28;1200;-66
2022/03/26 05:22:19;;;;;;;;;;;;;;;;;;4981847;28;1193;-66
2022/03/26 05:24:44;;;;;;;;;;;;;;;;;;4979864;28;1212;-66
2022/03/26 05:27:10;;;;;;;;;;;;;;;;;;4981576;28;1241;-65
2022/03/26 05:29:35;;;;;;;;;;;;;;;;;;4981758;28;1973;-66
2022/03/26 05:32:00;;;;;;;;;;;;;;;;;;4981710;28;1448;-66
2022/03/26 05:34:26;;;;;;;;;;;;;;;;;;4981402;28;1241;-66
2022/03/26 05:36:51;;;;;;;;;;;;;;;;;;4981219;28;1294;-66
2022/03/26 05:39:16;;;;;;;;;;;;;;;;;;4981343;28;1414;-66
2022/03/26 05:41:42;;;;;;;;;;;;;;;;;;4981621;28;1276;-66
2022/03/26 05:44:08;;;;;;;;;;;;;;;;;;4980591;28;1659;-66
2022/03/26 05:46:33;;;;;;;;;;;;;;;;;;4980852;28;1268;-65
2022/03/26 05:48:58;;;;;;;;;;;;;;;;;;4981468;28;1972;-66
2022/03/26 05:51:23;;;;;;;;;;;;;;;;;;4980996;28;1199;-66
2022/03/26 05:53:50;;;;;;;;;;;;;;;;;;4981307;28;1252;-66
2022/03/26 05:56:15;;;;;;;;;;;;;;;;;;4981667;28;1358;-65
2022/03/26 05:58:41;;;;;;;;;;;;;;;;;;4980743;28;1663;-66
2022/03/26 06:01:06;;;;;;;;;;;;;;;;;;4981368;28;1296;-66
2022/03/26 06:03:31;;;;;;;;;;;;;;;;;;4980676;28;1245;-66
2022/03/26 06:05:58;;;;;;;;;;;;;;;;;;4980835;28;1354;-66
2022/03/26 06:08:23;;;;;;;;;;;;;;;;;;4980700;28;1906;-66
2022/03/26 06:10:48;;;;;;;;;;;;;;;;;;4978837;28;1592;-66
2022/03/26 06:13:13;;;;;;;;;;;;;;;;;;4979986;28;1528;-66
2022/03/26 06:15:39;;;;;;;;;;;;;;;;;;4980593;28;1264;-66
2022/03/26 06:18:04;;;;;;;;;;;;;;;;;;4981002;28;1374;-66
2022/03/26 06:20:29;;;;;;;;;;;;;;;;;;4980800;28;1229;-66
2022/03/26 06:23:00;;;;;;;;;;;;;;;;;;4980402;28;1324;-67
2022/03/26 06:25:26;;;;;;;;;;;;;;;;;;4978535;28;1707;-68
2022/03/26 06:27:51;;;;;;;;;;;;;;;;;;4980380;28;1299;-67
2022/03/26 06:30:16;;;;;;;;;;;;;;;;;;4980406;28;1894;-67
2022/03/26 06:32:41;;;;;;;;;;;;;;;;;;4980177;28;1268;-67
2022/03/26 06:35:07;;;;;;;;;;;;;;;;;;4980487;28;1173;-68
2022/03/26 06:37:32;;;;;;;;;;;;;;;;;;4979560;28;1391;-67
2022/03/26 06:39:58;;;;;;;;;;;;;;;;;;4978849;28;1767;-66
2022/03/26 06:42:24;;;;;;;;;;;;;;;;;;4980031;28;1177;-66
2022/03/26 06:44:49;;;;;;;;;;;;;;;;;;4978861;28;1588;-67
2022/03/26 06:47:14;;;;;;;;;;;;;;;;;;4979897;28;1354;-67
2022/03/26 06:49:41;;;;;;;;;;;;;;;;;;4980265;28;1900;-67
2022/03/26 06:52:06;;;;;;;;;;;;;;;;;;4979420;28;1491;-67
2022/03/26 06:54:32;;;;;;;;;;;;;;;;;;4979588;28;1237;-67
2022/03/26 06:56:57;;;;;;;;;;;;;;;;;;4980121;28;1343;-67
2022/03/26 06:59:23;;;;;;;;;;;;;;;;;;4980736;28;1206;-67
2022/03/26 07:01:48;;;;;;;;;;;;;;;;;;4980451;28;1567;-67
2022/03/26 07:04:14;;;;;;;;;;;;;;;;;;4980245;28;1305;-68
2022/03/26 07:06:39;;;;;;;;;;;;;;;;;;4979174;28;1839;-67
2022/03/26 07:09:04;;;;;;;;;;;;;;;;;;4980303;28;1886;-68
2022/03/26 07:11:29;;;;;;;;;;;;;;;;;;4980367;28;1297;-68
2022/03/26 07:13:54;;;;;;;;;;;;;;;;;;4980215;28;1316;-67
2022/03/26 07:16:20;;;;;;;;;;;;;;;;;;4980357;28;1264;-67
2022/03/26 07:18:45;;;;;;;;;;;;;;;;;;4980135;28;1256;-67
2022/03/26 07:21:10;;;;;;;;;;;;;;;;;;4980451;28;1051;-69
2022/03/26 07:23:35;;;;;;;;;;;;;;;;;;4981659;28;1308;-68
2022/03/26 07:26:01;;;;;;;;;;;;;;;;;;4982782;28;1294;-68
2022/03/26 07:28:26;;;;;;;;;;;;;;;;;;4983334;28;1957;-68
2022/03/26 07:30:52;;;;;;;;;;;;;;;;;;4983099;28;1394;-69
2022/03/26 07:33:17;;;;;;;;;;;;;;;;;;4983447;28;1310;-68
2022/03/26 07:35:43;;;;;;;;;;;;;;;;;;4982818;28;1334;-67
2022/03/26 07:38:08;;;;;;;;;;;;;;;;;;4983272;28;1305;-67
2022/03/26 07:40:34;;;;;;;;;;;;;;;;;;4983150;28;1265;-68
2022/03/26 07:42:59;;;;;;;;;;;;;;;;;;4981826;28;1384;-67
2022/03/26 07:45:25;;;;;;;;;;;;;;;;;;4982918;28;1311;-67
2022/03/26 07:47:50;;;;;;;;;;;;;;;;;;4983183;28;1245;-67
2022/03/26 07:50:15;;;;;;;;;;;;;;;;;;4982851;28;1954;-67
2022/03/26 07:52:41;;;;;;;;;;;;;;;;;;4983227;28;1352;-68
2022/03/26 07:55:07;;;;;;;;;;;;;;;;;;4982696;28;1343;-67
2022/03/26 07:57:32;;;;;;;;;;;;;;;;;;4981854;28;1341;-67
2022/03/26 07:59:57;;;;;;;;;;;;;;;;;;4982990;28;1335;-67
2022/03/26 08:02:22;;;;;;;;;;;;;;;;;;4982862;28;1363;-67
2022/03/26 08:04:47;;;;;;;;;;;;;;;;;;4982302;28;1263;-68
2022/03/26 08:07:13;;;;;;;;;;;;;;;;;;4982419;28;1667;-67
2022/03/26 08:09:38;;;;;;;;;;;;;;;;;;4982846;28;1959;-67
2022/03/26 08:12:04;;;;;;;;;;;;;;;;;;4981822;28;1604;-67
2022/03/26 08:14:30;;;;;;;;;;;;;;;;;;4982643;28;1280;-68
2022/03/26 08:16:55;;;;;;;;;;;;;;;;;;4982367;28;1306;-68
2022/03/26 08:19:20;;;;;;;;;;;;;;;;;;4982566;28;1288;-68
2022/03/26 08:21:45;;;;;;;;;;;;;;;;;;4982203;28;1320;-68
2022/03/26 08:24:12;;;;;;;;;;;;;;;;;;4982444;28;1311;-68
2022/03/26 08:26:37;;;;;;;;;;;;;;;;;;4982144;28;1359;-68
2022/03/26 08:29:03;;;;;;;;;;;;;;;;;;4982290;28;1886;-69
2022/03/26 08:31:28;;;;;;;;;;;;;;;;;;4980819;28;1329;-68
2022/03/26 08:33:54;;;;;;;;;;;;;;;;;;4981610;28;1360;-69
2022/03/26 08:36:19;;;;;;;;;;;;;;;;;;4981204;28;1352;-68
2022/03/26 08:38:45;;;;;;;;;;;;;;;;;;4982345;28;1261;-69
2022/03/26 08:41:14;;;;;;;;;;;;;;;;;;4982314;28;1249;-69
2022/03/26 08:43:40;;;;;;;;;;;;;;;;;;4979625;28;1541;-69
2022/03/26 08:46:05;;;;;;;;;;;;;;;;;;4981452;28;1197;-67
2022/03/26 08:48:31;;;;;;;;;;;;;;;;;;4981681;28;1968;-68
2022/03/26 08:50:56;;;;;;;;;;;;;;;;;;4981368;28;1374;-67
2022/03/26 08:53:21;;;;;;;;;;;;;;;;;;4982151;28;1363;-68
2022/03/26 08:55:47;;;;;;;;;;;;;;;;;;4981055;28;1369;-67
2022/03/26 08:58:12;;;;;;;;;;;;;;;;;;4981361;28;1517;-68
2022/03/26 09:00:38;;;;;;;;;;;;;;;;;;4979261;28;1788;-68
2022/03/26 09:03:03;;;;;;;;;;;;;;;;;;4981893;28;1216;-68
2022/03/26 09:05:29;;;;;;;;;;;;;;;;;;4980242;28;1647;-69
2022/03/26 09:07:54;;;;;;;;;;;;;;;;;;4981950;28;1643;-68
2022/03/26 09:10:19;;;;;;;;;;;;;;;;;;4981514;28;1969;-68
2022/03/26 09:12:46;;;;;;;;;;;;;;;;;;4980888;28;1660;-68
2022/03/26 09:15:11;;;;;;;;;;;;;;;;;;4981305;28;1486;-67
2022/03/26 09:17:37;;;;;;;;;;;;;;;;;;4981680;28;1285;-68
2022/03/26 09:20:03;;;;;;;;;;;;;;;;;;4980487;28;1628;-68
2022/03/26 09:22:29;;;;;;;;;;;;;;;;;;4981544;28;1750;-67
2022/03/26 09:24:55;;;;;;;;;;;;;;;;;;4981628;28;1315;-68
2022/03/26 09:27:20;;;;;;;;;;;;;;;;;;4981007;28;1513;-68
2022/03/26 09:29:45;;;;;;;;;;;;;;;;;;4980656;28;1894;-67
2022/03/26 09:32:10;;;;;;;;;;;;;;;;;;4981154;28;1256;-68
2022/03/26 09:34:35;;;;;;;;;;;;;;;;;;4981625;28;1309;-68
2022/03/26 09:37:01;;;;;;;;;;;;;;;;;;4980870;28;1354;-69
2022/03/26 09:39:26;;;;;;;;;;;;;;;;;;4981518;28;1854;-67
2022/03/26 09:41:52;;;;;;;;;;;;;;;;;;4980524;28;1620;-68
2022/03/26 09:44:18;;;;;;;;;;;;;;;;;;4981048;28;1180;-67
2022/03/26 09:46:43;;;;;;;;;;;;;;;;;;4981088;28;1277;-67
2022/03/26 09:49:10;;;;;;;;;;;;;;;;;;4981141;28;1973;-67
2022/03/26 09:51:35;;;;;;;;;;;;;;;;;;4981368;28;1257;-68
2022/03/26 09:54:00;;;;;;;;;;;;;;;;;;4981799;28;1315;-69
2022/03/26 09:56:28;;;;;;;;;;;;;;;;;;4981115;28;1642;-69
2022/03/26 09:58:54;;;;;;;;;;;;;;;;;;4981950;28;1543;-70
2022/03/26 10:01:20;;;;;;;;;;;;;;;;;;4981821;28;2051;-68
2022/03/26 10:04:04;;;;;;;;;;;;;;;;;;4980811;28;2176;-68
2022/03/26 10:06:29;;;;;;;;;;;;;;;;;;4980123;28;1536;-69
2022/03/26 10:08:54;;;;;;;;;;;;;;;;;;4980858;28;1890;-69
2022/03/26 10:11:20;;;;;;;;;;;;;;;;;;4981235;28;1307;-70
2022/03/26 10:13:47;;;;;;;;;;;;;;;;;;4981236;28;1312;-69
2022/03/26 10:16:13;;;;;;;;;;;;;;;;;;4980154;28;1252;-69
2022/03/26 10:18:39;;;;;;;;;;;;;;;;;;4979152;28;1473;-69
2022/03/26 10:21:06;;;;;;;;;;;;;;;;;;4982131;28;1754;-69
2022/03/26 10:23:32;;;;;;;;;;;;;;;;;;4981067;28;1293;-70
2022/03/26 10:26:07;;;;;;;;;;;;;;;;;;4980452;28;1276;-67
2022/03/26 10:28:32;;;;;;;;;;;;;;;;;;4980905;28;1961;-67
2022/03/26 10:34:00;;;;;;;;;;;;;;;;;;4981736;28;1034;-68
2022/03/26 10:36:26;;;;;;;;;;;;;;;;;;4979865;28;1640;-67
2022/03/26 10:38:51;;;;;;;;;;;;;;;;;;4979064;28;1690;-66
2022/03/26 10:41:20;;;;;;;;;;;;;;;;;;4981066;28;1348;-67
2022/03/26 10:43:45;;;;;;;;;;;;;;;;;;4980633;28;1183;-67
2022/03/26 10:46:10;;;;;;;;;;;;;;;;;;4979815;28;2008;-67
2022/03/26 10:48:36;;;;;;;;;;;;;;;;;;4980335;28;1894;-69
2022/03/26 10:51:08;;;;;;;;;;;;;;;;;;4980834;28;1249;-67
2022/03/26 10:53:37;;;;;;;;;;;;;;;;;;4979054;28;1580;-67
2022/03/26 10:56:03;;;;;;;;;;;;;;;;;;4980623;28;1404;-68
2022/03/26 10:58:29;;;;;;;;;;;;;;;;;;4982059;28;1205;-67
2022/03/26 11:00:55;;;;;;;;;;;;;;;;;;4982791;28;1762;-67
2022/03/26 11:03:20;;;;;;;;;;;;;;;;;;4984118;28;1256;-67
2022/03/26 11:05:46;;;;;;;;;;;;;;;;;;4983259;28;1363;-68
2022/03/26 11:08:12;;;;;;;;;;;;;;;;;;4983466;28;1656;-69
2022/03/26 11:10:38;;;;;;;;;;;;;;;;;;4983976;28;1906;-68
2022/03/26 11:13:03;;;;;;;;;;;;;;;;;;4984068;28;1276;-69
2022/03/26 11:15:31;;;;;;;;;;;;;;;;;;4984177;28;1245;-68
2022/03/26 11:18:08;;;;;;;;;;;;;;;;;;4984090;28;1331;-71
2022/03/26 11:20:57;;;;;;;;;;;;;;;;;;4983433;28;1137;-69
2022/03/26 11:23:30;;;;;;;;;;;;;;;;;;4970336;28;1635;-69
2022/03/26 11:25:58;;;;;;;;;;;;;;;;;;4983710;28;1248;-69
2022/03/26 11:28:41;;;;;;;;;;;;;;;;;;4983676;28;1615;-69
2022/03/26 11:31:12;;;;;;;;;;;;;;;;;;4984232;28;1297;-69
2022/03/26 11:33:37;;;;;;;;;;;;;;;;;;4984431;28;1339;-69
2022/03/26 11:36:04;;;;;;;;;;;;;;;;;;4983201;28;1273;-69
2022/03/26 11:38:30;;;;;;;;;;;;;;;;;;4983113;28;1560;-70
2022/03/26 11:40:56;;;;;;;;;;;;;;;;;;4983072;28;1556;-69
2022/03/26 11:43:40;;;;;;;;;;;;;;;;;;4982622;28;1687;-69
2022/03/26 11:51:35;;;;;;;;;;;;;;;;;;4982828;28;1373;-69
2022/03/26 11:54:12;;;;;;;;;;;;;;;;;;4982910;28;1249;-69
2022/03/26 11:56:37;;;;;;;;;;;;;;;;;;4983276;28;1485;-68
2022/03/26 11:59:02;;;;;;;;;;;;;;;;;;4981822;28;1702;-68
2022/03/26 12:01:33;;;;;;;;;;;;;;;;;;4983259;28;1387;-68
2022/03/26 12:04:07;;;;;;;;;;;;;;;;;;4983499;28;1296;-68
2022/03/26 12:06:40;;;;;;;;;;;;;;;;;;4982016;28;1702;-68
2022/03/26 12:09:05;;;;;;;;;;;;;;;;;;4982828;28;1894;-68
2022/03/26 12:11:33;;;;;;;;;;;;;;;;;;4983405;28;1237;-68
2022/03/26 12:14:03;;;;;;;;;;;;;;;;;;4981796;28;1167;-68
2022/03/26 12:16:47;;;;;;;;;;;;;;;;;;4982235;28;1251;-68
2022/03/26 12:19:32;;;;;;;;;;;;;;;;;;4983554;28;1221;-68
2022/03/26 12:21:57;;;;;;;;;;;;;;;;;;4982049;28;1568;-68
2022/03/26 12:24:28;;;;;;;;;;;;;;;;;;4982949;28;1896;-68
2022/03/26 12:26:53;;;;;;;;;;;;;;;;;;4982344;28;1217;-68
2022/03/26 12:29:19;;;;;;;;;;;;;;;;;;4983363;28;1894;-68
2022/03/26 12:31:49;;;;;;;;;;;;;;;;;;4983304;28;1316;-69
2022/03/26 12:34:14;;;;;;;;;;;;;;;;;;4982843;28;1284;-68
2022/03/26 12:36:40;;;;;;;;;;;;;;;;;;4980992;28;1544;-68
2022/03/26 12:39:05;;;;;;;;;;;;;;;;;;4982813;28;1323;-67
2022/03/26 12:41:30;;;;;;;;;;;;;;;;;;4982884;28;1373;-67
2022/03/26 12:43:56;;;;;;;;;;;;;;;;;;4982750;28;1273;-68
2022/03/26 12:46:29;;;;;;;;;;;;;;;;;;4982293;28;1252;-69
2022/03/26 12:48:55;;;;;;;;;;;;;;;;;;4982201;28;1895;-68
2022/03/26 12:51:22;;;;;;;;;;;;;;;;;;4982119;28;1537;-68
2022/03/26 12:53:48;;;;;;;;;;;;;;;;;;4982350;28;1352;-69
2022/03/26 12:56:14;;;;;;;;;;;;;;;;;;4981056;28;1635;-68
2022/03/26 12:58:58;;;;;;;;;;;;;;;;;;4981640;28;1588;-69
2022/03/26 13:01:24;;;;;;;;;;;;;;;;;;4982381;28;1252;-69
2022/03/26 13:03:50;;;;;;;;;;;;;;;;;;4982576;28;1237;-69
2022/03/26 13:06:16;;;;;;;;;;;;;;;;;;4981687;28;1568;-68
2022/03/26 13:08:52;;;;;;;;;;;;;;;;;;4982934;28;1894;-67
2022/03/26 13:11:18;;;;;;;;;;;;;;;;;;4981820;28;1600;-68
2022/03/26 13:13:44;;;;;;;;;;;;;;;;;;4982184;28;1244;-68
2022/03/26 13:16:13;;;;;;;;;;;;;;;;;;4981469;28;1648;-68
2022/03/26 13:18:42;;;;;;;;;;;;;;;;;;4981850;28;1177;-67
2022/03/26 13:21:07;;;;;;;;;;;;;;;;;;4980678;28;1656;-67
2022/03/26 13:23:33;;;;;;;;;;;;;;;;;;4982136;28;1233;-67
2022/03/26 13:25:58;;;;;;;;;;;;;;;;;;4981569;28;1236;-67
2022/03/26 13:28:31;;;;;;;;;;;;;;;;;;4981846;28;1276;-67
2022/03/26 13:30:56;;;;;;;;;;;;;;;;;;4980795;28;1898;-68
2022/03/26 13:33:23;;;;;;;;;;;;;;;;;;4982257;28;1304;-68
2022/03/26 13:35:52;;;;;;;;;;;;;;;;;;4979814;28;1572;-66
2022/03/26 13:38:18;;;;;;;;;;;;;;;;;;4982031;28;1370;-67
2022/03/26 13:40:43;;;;;;;;;;;;;;;;;;4981214;28;1662;-67
2022/03/26 13:43:11;;;;;;;;;;;;;;;;;;4981800;28;1260;-68
2022/03/26 13:45:36;;;;;;;;;;;;;;;;;;4981561;28;1252;-68
2022/03/26 13:48:02;;;;;;;;;;;;;;;;;;4979780;28;1656;-68
2022/03/26 13:50:28;;;;;;;;;;;;;;;;;;4980624;28;1898;-68
2022/03/26 13:52:53;;;;;;;;;;;;;;;;;;4980968;28;1640;-67
2022/03/26 13:55:29;;;;;;;;;;;;;;;;;;4981089;28;1256;-67
2022/03/26 13:57:55;;;;;;;;;;;;;;;;;;4981118;28;1245;-68
2022/03/26 14:00:22;;;;;;;;;;;;;;;;;;4981975;28;1574;-68
2022/03/26 14:02:48;;;;;;;;;;;;;;;;;;4982088;28;1595;-68
2022/03/26 14:05:25;;;;;;;;;;;;;;;;;;4980249;28;1269;-68
2022/03/26 14:07:51;;;;;;;;;;;;;;;;;;4981693;28;1189;-66
2022/03/26 14:10:16;;;;;;;;;;;;;;;;;;4981058;28;1957;-67
2022/03/26 14:12:44;;;;;;;;;;;;;;;;;;4978350;28;1497;-67
2022/03/26 14:15:09;;;;;;;;;;;;;;;;;;4979386;28;1236;-67
2022/03/26 14:17:34;;;;;;;;;;;;;;;;;;4980728;28;1339;-67
2022/03/26 14:20:00;;;;;;;;;;;;;;;;;;4981771;28;1315;-68
2022/03/26 14:22:25;;;;;;;;;;;;;;;;;;4981310;28;1241;-67
2022/03/26 14:24:50;;;;;;;;;;;;;;;;;;4981330;28;1482;-68
2022/03/26 14:27:15;;;;;;;;;;;;;;;;;;4979590;28;1696;-68
2022/03/26 14:29:41;;;;;;;;;;;;;;;;;;4980703;28;1969;-68
2022/03/26 14:32:06;;;;;;;;;;;;;;;;;;4980960;28;1276;-67
2022/03/26 14:34:31;;;;;;;;;;;;;;;;;;4983168;28;1284;-67
2022/03/26 14:36:57;;;;;;;;;;;;;;;;;;4984252;28;1261;-68
2022/03/26 14:39:22;;;;;;;;;;;;;;;;;;4984307;28;1181;-68
2022/03/26 14:41:47;;;;;;;;;;;;;;;;;;4985590;28;1699;-68
2022/03/26 14:44:13;;;;;;;;;;;;;;;;;;4983155;28;1397;-67
2022/03/26 14:46:39;;;;;;;;;;;;;;;;;;4982391;28;1351;-67
2022/03/26 14:49:04;;;;;;;;;;;;;;;;;;4981931;28;1890;-67
2022/03/26 14:51:29;;;;;;;;;;;;;;;;;;4983980;28;1232;-68
2022/03/26 14:53:54;;;;;;;;;;;;;;;;;;4983467;28;1182;-68
2022/03/26 14:56:20;;;;;;;;;;;;;;;;;;4983635;28;1314;-67
2022/03/26 14:58:45;;;;;;;;;;;;;;;;;;4984368;28;1227;-68
2022/03/26 15:01:11;;;;;;;;;;;;;;;;;;4985077;28;1252;-67
2022/03/26 15:03:36;;;;;;;;;;;;;;;;;;4982707;28;1465;-67
2022/03/26 15:06:02;;;;;;;;;;;;;;;;;;4983979;28;1350;-67
2022/03/26 15:08:27;;;;;;;;;;;;;;;;;;4984959;28;1772;-67
2022/03/26 15:10:52;;;;;;;;;;;;;;;;;;4983834;28;1902;-67
2022/03/26 15:13:18;;;;;;;;;;;;;;;;;;4983849;28;1364;-67
2022/03/26 15:15:43;;;;;;;;;;;;;;;;;;4983431;28;1311;-67
2022/03/26 15:18:08;;;;;;;;;;;;;;;;;;4983787;28;1205;-67
2022/03/26 15:20:33;;;;;;;;;;;;;;;;;;4983631;28;1260;-68
2022/03/26 15:23:00;;;;;;;;;;;;;;;;;;4984004;28;1307;-67
2022/03/26 15:25:25;;;;;;;;;;;;;;;;;;4982912;28;1604;-67
2022/03/26 15:27:50;;;;;;;;;;;;;;;;;;4983358;28;1248;-67
2022/03/26 15:30:15;;;;;;;;;;;;;;;;;;4983997;28;1906;-67
2022/03/26 15:32:40;;;;;;;;;;;;;;;;;;4983569;28;1228;-67
2022/03/26 15:35:06;;;;;;;;;;;;;;;;;;4982929;28;1660;-68
2022/03/26 15:37:31;;;;;;;;;;;;;;;;;;4983271;28;1367;-67
2022/03/26 15:39:57;;;;;;;;;;;;;;;;;;4982775;28;1223;-67
2022/03/26 15:42:23;;;;;;;;;;;;;;;;;;4983412;28;1277;-67
2022/03/26 15:44:48;;;;;;;;;;;;;;;;;;4981200;28;1395;-66
2022/03/26 15:47:13;;;;;;;;;;;;;;;;;;4982651;28;1664;-66
2022/03/26 15:49:38;;;;;;;;;;;;;;;;;;4981489;28;1981;-67
2022/03/26 15:52:05;;;;;;;;;;;;;;;;;;4983270;28;1264;-67
2022/03/26 15:54:30;;;;;;;;;;;;;;;;;;4983451;28;1253;-67
2022/03/26 15:56:55;;;;;;;;;;;;;;;;;;4982999;28;1260;-68
2022/03/26 15:59:21;;;;;;;;;;;;;;;;;;4983233;28;1244;-68
2022/03/26 16:01:46;;;;;;;;;;;;;;;;;;4982935;28;1249;-67
2022/03/26 16:04:11;;;;;;;;;;;;;;;;;;4981964;28;1993;-67
2022/03/26 16:06:37;;;;;;;;;;;;;;;;;;4982049;28;1409;-67
2022/03/26 16:09:02;;;;;;;;;;;;;;;;;;4983159;28;1960;-68
2022/03/26 16:11:27;;;;;;;;;;;;;;;;;;4983059;28;1364;-67
2022/03/26 16:13:52;;;;;;;;;;;;;;;;;;4982231;28;1340;-67
2022/03/26 16:16:18;;;;;;;;;;;;;;;;;;4983229;28;1320;-67
2022/03/26 16:18:43;;;;;;;;;;;;;;;;;;4981574;28;1588;-67
2022/03/26 16:21:08;;;;;;;;;;;;;;;;;;4980050;28;1620;-67
2022/03/26 16:23:34;;;;;;;;;;;;;;;;;;4981612;28;1602;-67
2022/03/26 16:26:00;;;;;;;;;;;;;;;;;;4982229;28;1273;-67
2022/03/26 16:28:25;;;;;;;;;;;;;;;;;;4982554;28;1284;-67
2022/03/26 16:30:51;;;;;;;;;;;;;;;;;;4982513;28;1906;-67
2022/03/26 16:33:16;;;;;;;;;;;;;;;;;;4982734;28;1232;-67
2022/03/26 16:35:41;;;;;;;;;;;;;;;;;;4981926;28;1415;-66
2022/03/26 16:38:06;;;;;;;;;;;;;;;;;;4982181;28;1257;-67
2022/03/26 16:40:32;;;;;;;;;;;;;;;;;;4982307;28;1416;-67
2022/03/26 16:43:01;;;;;;;;;;;;;;;;;;4982542;28;1249;-67
2022/03/26 16:45:27;;;;;;;;;;;;;;;;;;4981881;28;1363;-67
2022/03/26 16:47:52;;;;;;;;;;;;;;;;;;4982124;28;1300;-66
2022/03/26 16:50:17;;;;;;;;;;;;;;;;;;4981831;28;1975;-67
2022/03/26 16:52:42;;;;;;;;;;;;;;;;;;4982363;28;1276;-67
2022/03/26 16:55:07;;;;;;;;;;;;;;;;;;4981542;28;1356;-67
2022/03/26 16:57:33;;;;;;;;;;;;;;;;;;4981164;28;1623;-67
2022/03/26 16:59:58;;;;;;;;;;;;;;;;;;4979786;28;1517;-67
2022/03/26 17:02:23;;;;;;;;;;;;;;;;;;4980429;28;1564;-67
2022/03/26 17:04:48;;;;;;;;;;;;;;;;;;4984691;28;1350;-68